sensor_id;sensor_type;location;lat;lon;timestamp;temperature;humidity
69823;SHT31;57119;52.516;13.508;2023-04-03T00:00:24;0.20;90.22
69823;SHT31;57119;52.516;13.508;2023-04-03T00:02:50;0.16;90.35
69823;SHT31;57119;52.516;13.508;2023-04-03T00:05:15;0.14;90.19
69823;SHT31;57119;52.516;13.508;2023-04-03T00:07:41;0.13;90.29
69823;SHT31;57119;52.516;13.508;2023-04-03T00:10:06;0.06;90.63
69823;SHT31;57119;52.516;13.508;2023-04-03T00:12:32;0.00;90.42
69823;SHT31;57119;52.516;13.508;2023-04-03T00:14:57;0.06;90.45
69823;SHT31;57119;52.516;13.508;2023-04-03T00:17:23;0.09;90.10
69823;SHT31;57119;52.516;13.508;2023-04-03T00:19:48;0.07;90.24
69823;SHT31;57119;52.516;13.508;2023-04-03T00:22:14;0.11;90.05
69823;SHT31;57119;52.516;13.508;2023-04-03T00:24:39;0.10;89.84
69823;SHT31;57119;52.516;13.508;2023-04-03T00:27:05;0.13;89.73
69823;SHT31;57119;52.516;13.508;2023-04-03T00:29:30;-0.03;90.01
69823;SHT31;57119;52.516;13.508;2023-04-03T00:31:55;-0.04;89.88
69823;SHT31;57119;52.516;13.508;2023-04-03T00:34:21;-0.03;89.88
69823;SHT31;57119;52.516;13.508;2023-04-03T00:36:46;-0.15;89.99
69823;SHT31;57119;52.516;13.508;2023-04-03T00:39:12;-0.10;90.26
69823;SHT31;57119;52.516;13.508;2023-04-03T00:41:37;-0.10;89.59
69823;SHT31;57119;52.516;13.508;2023-04-03T00:44:19;-0.11;89.89
69823;SHT31;57119;52.516;13.508;2023-04-03T00:46:48;-0.11;89.60
69823;SHT31;57119;52.516;13.508;2023-04-03T00:49:13;-0.15;89.62
69823;SHT31;57119;52.516;13.508;2023-04-03T00:51:38;-0.21;89.52
69823;SHT31;57119;52.516;13.508;2023-04-03T00:54:05;-0.24;89.93
69823;SHT31;57119;52.516;13.508;2023-04-03T00:56:32;-0.28;89.85
69823;SHT31;57119;52.516;13.508;2023-04-03T01:01:26;-0.34;90.07
69823;SHT31;57119;52.516;13.508;2023-04-03T01:03:52;-0.31;90.09
69823;SHT31;57119;52.516;13.508;2023-04-03T01:06:21;-0.34;90.26
69823;SHT31;57119;52.516;13.508;2023-04-03T01:08:49;-0.32;90.41
69823;SHT31;57119;52.516;13.508;2023-04-03T01:11:15;-0.25;90.31
69823;SHT31;57119;52.516;13.508;2023-04-03T01:13:40;-0.26;90.13
69823;SHT31;57119;52.516;13.508;2023-04-03T01:16:06;-0.36;90.22
69823;SHT31;57119;52.516;13.508;2023-04-03T01:18:33;-0.42;90.72
69823;SHT31;57119;52.516;13.508;2023-04-03T01:22:19;-0.45;90.74
69823;SHT31;57119;52.516;13.508;2023-04-03T01:24:37;-0.43;90.76
69823;SHT31;57119;52.516;13.508;2023-04-03T01:27:06;-0.42;90.90
69823;SHT31;57119;52.516;13.508;2023-04-03T01:29:33;-0.41;90.73
69823;SHT31;57119;52.516;13.508;2023-04-03T01:32:01;-0.49;91.00
69823;SHT31;57119;52.516;13.508;2023-04-03T01:34:28;-0.49;91.03
69823;SHT31;57119;52.516;13.508;2023-04-03T01:36:54;-0.53;91.03
69823;SHT31;57119;52.516;13.508;2023-04-03T01:39:20;-0.61;91.40
69823;SHT31;57119;52.516;13.508;2023-04-03T01:41:46;-0.58;91.36
69823;SHT31;57119;52.516;13.508;2023-04-03T01:44:12;-0.53;91.41
69823;SHT31;57119;52.516;13.508;2023-04-03T01:46:37;-0.53;91.24
69823;SHT31;57119;52.516;13.508;2023-04-03T01:49:04;-0.59;91.44
69823;SHT31;57119;52.516;13.508;2023-04-03T01:51:30;-0.68;91.70
69823;SHT31;57119;52.516;13.508;2023-04-03T01:53:56;-0.72;91.90
69823;SHT31;57119;52.516;13.508;2023-04-03T01:56:21;-0.70;92.12
69823;SHT31;57119;52.516;13.508;2023-04-03T01:58:47;-0.72;91.85
69823;SHT31;57119;52.516;13.508;2023-04-03T02:01:12;-0.73;91.88
69823;SHT31;57119;52.516;13.508;2023-04-03T02:03:38;-0.73;92.07
69823;SHT31;57119;52.516;13.508;2023-04-03T02:06:03;-0.74;92.08
69823;SHT31;57119;52.516;13.508;2023-04-03T02:08:29;-0.87;92.45
69823;SHT31;57119;52.516;13.508;2023-04-03T02:10:54;-0.96;92.57
69823;SHT31;57119;52.516;13.508;2023-04-03T02:13:20;-0.94;93.02
69823;SHT31;57119;52.516;13.508;2023-04-03T02:15:46;-1.00;93.46
69823;SHT31;57119;52.516;13.508;2023-04-03T02:18:11;-1.14;93.63
69823;SHT31;57119;52.516;13.508;2023-04-03T02:20:37;-1.15;93.82
69823;SHT31;57119;52.516;13.508;2023-04-03T02:23:03;-1.17;93.89
69823;SHT31;57119;52.516;13.508;2023-04-03T02:25:30;-1.24;94.26
69823;SHT31;57119;52.516;13.508;2023-04-03T02:27:55;-1.30;94.50
69823;SHT31;57119;52.516;13.508;2023-04-03T02:30:21;-1.35;94.74
69823;SHT31;57119;52.516;13.508;2023-04-03T02:32:46;-1.34;94.70
69823;SHT31;57119;52.516;13.508;2023-04-03T02:35:12;-1.35;94.85
69823;SHT31;57119;52.516;13.508;2023-04-03T02:37:37;-1.22;94.56
69823;SHT31;57119;52.516;13.508;2023-04-03T02:40:03;-1.12;94.41
69823;SHT31;57119;52.516;13.508;2023-04-03T02:42:29;-1.20;94.45
69823;SHT31;57119;52.516;13.508;2023-04-03T02:44:54;-1.32;94.67
69823;SHT31;57119;52.516;13.508;2023-04-03T02:47:20;-1.34;94.79
69823;SHT31;57119;52.516;13.508;2023-04-03T02:49:46;-1.32;94.91
69823;SHT31;57119;52.516;13.508;2023-04-03T02:52:13;-1.34;94.97
69823;SHT31;57119;52.516;13.508;2023-04-03T02:54:38;-1.44;95.11
69823;SHT31;57119;52.516;13.508;2023-04-03T02:57:04;-1.47;95.23
69823;SHT31;57119;52.516;13.508;2023-04-03T02:59:29;-1.51;95.34
69823;SHT31;57119;52.516;13.508;2023-04-03T03:01:55;-1.56;95.46
69823;SHT31;57119;52.516;13.508;2023-04-03T03:04:21;-1.65;95.95
69823;SHT31;57119;52.516;13.508;2023-04-03T03:06:47;-1.49;95.88
69823;SHT31;57119;52.516;13.508;2023-04-03T03:09:13;-1.52;95.88
69823;SHT31;57119;52.516;13.508;2023-04-03T03:11:38;-1.58;96.02
69823;SHT31;57119;52.516;13.508;2023-04-03T03:14:04;-1.58;96.07
69823;SHT31;57119;52.516;13.508;2023-04-03T03:16:30;-1.63;96.13
69823;SHT31;57119;52.516;13.508;2023-04-03T03:18:55;-1.66;96.36
69823;SHT31;57119;52.516;13.508;2023-04-03T03:21:21;-1.75;96.41
69823;SHT31;57119;52.516;13.508;2023-04-03T03:23:46;-1.63;96.48
69823;SHT31;57119;52.516;13.508;2023-04-03T03:26:12;-1.72;96.66
69823;SHT31;57119;52.516;13.508;2023-04-03T03:28:38;-1.65;96.67
69823;SHT31;57119;52.516;13.508;2023-04-03T03:31:05;-1.60;96.71
69823;SHT31;57119;52.516;13.508;2023-04-03T03:33:30;-1.63;96.52
69823;SHT31;57119;52.516;13.508;2023-04-03T03:35:56;-1.60;96.51
69823;SHT31;57119;52.516;13.508;2023-04-03T03:38:22;-1.65;96.45
69823;SHT31;57119;52.516;13.508;2023-04-03T03:40:48;-1.69;96.46
69823;SHT31;57119;52.516;13.508;2023-04-03T03:43:15;-1.79;96.69
69823;SHT31;57119;52.516;13.508;2023-04-03T03:45:41;-1.91;96.93
69823;SHT31;57119;52.516;13.508;2023-04-03T03:48:06;-1.68;97.05
69823;SHT31;57119;52.516;13.508;2023-04-03T03:50:32;-1.87;97.15
69823;SHT31;57119;52.516;13.508;2023-04-03T03:52:57;-1.85;97.15
69823;SHT31;57119;52.516;13.508;2023-04-03T03:55:22;-1.76;96.93
69823;SHT31;57119;52.516;13.508;2023-04-03T03:57:48;-1.76;96.64
69823;SHT31;57119;52.516;13.508;2023-04-03T04:00:15;-1.72;96.69
69823;SHT31;57119;52.516;13.508;2023-04-03T04:02:40;-1.80;96.92
69823;SHT31;57119;52.516;13.508;2023-04-03T04:05:06;-1.93;97.13
69823;SHT31;57119;52.516;13.508;2023-04-03T04:07:31;-1.73;97.16
69823;SHT31;57119;52.516;13.508;2023-04-03T04:09:57;-1.87;97.15
69823;SHT31;57119;52.516;13.508;2023-04-03T04:12:22;-1.90;97.57
69823;SHT31;57119;52.516;13.508;2023-04-03T04:14:47;-1.78;97.16
69823;SHT31;57119;52.516;13.508;2023-04-03T04:17:13;-1.89;97.21
69823;SHT31;57119;52.516;13.508;2023-04-03T04:19:39;-1.89;97.27
69823;SHT31;57119;52.516;13.508;2023-04-03T04:22:05;-1.96;97.07
69823;SHT31;57119;52.516;13.508;2023-04-03T04:24:30;-2.03;97.55
69823;SHT31;57119;52.516;13.508;2023-04-03T04:26:55;-2.00;97.83
69823;SHT31;57119;52.516;13.508;2023-04-03T04:29:21;-2.00;97.48
69823;SHT31;57119;52.516;13.508;2023-04-03T04:31:46;-2.01;97.59
69823;SHT31;57119;52.516;13.508;2023-04-03T04:34:12;-1.89;97.57
69823;SHT31;57119;52.516;13.508;2023-04-03T04:36:38;-2.01;97.33
69823;SHT31;57119;52.516;13.508;2023-04-03T04:39:04;-2.18;97.77
69823;SHT31;57119;52.516;13.508;2023-04-03T04:41:30;-2.10;98.17
69823;SHT31;57119;52.516;13.508;2023-04-03T04:43:55;-2.09;98.11
69823;SHT31;57119;52.516;13.508;2023-04-03T04:46:21;-2.14;98.03
69823;SHT31;57119;52.516;13.508;2023-04-03T04:48:46;-2.09;98.24
69823;SHT31;57119;52.516;13.508;2023-04-03T04:51:13;-2.15;98.16
69823;SHT31;57119;52.516;13.508;2023-04-03T04:53:39;-2.17;98.33
69823;SHT31;57119;52.516;13.508;2023-04-03T04:56:04;-2.11;98.45
69823;SHT31;57119;52.516;13.508;2023-04-03T04:58:30;-2.01;97.89
69823;SHT31;57119;52.516;13.508;2023-04-03T05:01:00;-1.83;97.86
69823;SHT31;57119;52.516;13.508;2023-04-03T05:03:25;-1.89;98.00
69823;SHT31;57119;52.516;13.508;2023-04-03T05:05:50;-1.96;98.00
69823;SHT31;57119;52.516;13.508;2023-04-03T05:08:16;-1.93;98.05
69823;SHT31;57119;52.516;13.508;2023-04-03T05:10:41;-1.86;97.71
69823;SHT31;57119;52.516;13.508;2023-04-03T05:13:07;-1.79;97.89
69823;SHT31;57119;52.516;13.508;2023-04-03T05:15:33;-1.69;97.49
69823;SHT31;57119;52.516;13.508;2023-04-03T05:17:58;-1.68;97.83
69823;SHT31;57119;52.516;13.508;2023-04-03T05:20:24;-1.63;97.53
69823;SHT31;57119;52.516;13.508;2023-04-03T05:22:50;-1.49;97.54
69823;SHT31;57119;52.516;13.508;2023-04-03T05:25:15;-1.35;96.85
69823;SHT31;57119;52.516;13.508;2023-04-03T05:27:41;-1.40;96.69
69823;SHT31;57119;52.516;13.508;2023-04-03T05:30:07;-1.30;96.73
69823;SHT31;57119;52.516;13.508;2023-04-03T05:32:32;-1.11;96.40
69823;SHT31;57119;52.516;13.508;2023-04-03T05:34:58;-1.21;96.50
69823;SHT31;57119;52.516;13.508;2023-04-03T05:37:24;-1.22;96.48
69823;SHT31;57119;52.516;13.508;2023-04-03T05:39:49;-1.12;96.44
69823;SHT31;57119;52.516;13.508;2023-04-03T05:42:16;-0.91;96.16
69823;SHT31;57119;52.516;13.508;2023-04-03T05:44:42;-0.66;95.39
69823;SHT31;57119;52.516;13.508;2023-04-03T05:47:08;-0.52;94.70
69823;SHT31;57119;52.516;13.508;2023-04-03T05:49:33;-0.46;94.75
69823;SHT31;57119;52.516;13.508;2023-04-03T05:51:59;-0.25;94.22
69823;SHT31;57119;52.516;13.508;2023-04-03T05:54:27;-0.10;93.68
69823;SHT31;57119;52.516;13.508;2023-04-03T05:56:52;0.05;93.17
69823;SHT31;57119;52.516;13.508;2023-04-03T05:59:19;0.17;92.44
69823;SHT31;57119;52.516;13.508;2023-04-03T06:01:45;0.30;92.20
69823;SHT31;57119;52.516;13.508;2023-04-03T06:04:11;0.41;91.95
69823;SHT31;57119;52.516;13.508;2023-04-03T06:09:16;0.69;90.76
69823;SHT31;57119;52.516;13.508;2023-04-03T06:11:42;0.79;90.40
69823;SHT31;57119;52.516;13.508;2023-04-03T06:14:08;0.93;89.96
69823;SHT31;57119;52.516;13.508;2023-04-03T06:16:34;1.10;89.36
69823;SHT31;57119;52.516;13.508;2023-04-03T06:18:59;1.33;88.15
69823;SHT31;57119;52.516;13.508;2023-04-03T06:21:25;1.68;87.53
69823;SHT31;57119;52.516;13.508;2023-04-03T06:23:51;2.06;86.95
69823;SHT31;57119;52.516;13.508;2023-04-03T06:26:17;2.39;84.92
69823;SHT31;57119;52.516;13.508;2023-04-03T06:28:42;2.84;83.86
69823;SHT31;57119;52.516;13.508;2023-04-03T06:31:08;3.27;81.92
69823;SHT31;57119;52.516;13.508;2023-04-03T06:33:34;3.60;80.67
69823;SHT31;57119;52.516;13.508;2023-04-03T06:36:00;3.81;79.46
69823;SHT31;57119;52.516;13.508;2023-04-03T06:38:28;4.02;78.07
69823;SHT31;57119;52.516;13.508;2023-04-03T06:40:53;4.50;77.12
69823;SHT31;57119;52.516;13.508;2023-04-03T06:43:19;4.52;75.92
69823;SHT31;57119;52.516;13.508;2023-04-03T06:45:45;4.79;75.79
69823;SHT31;57119;52.516;13.508;2023-04-03T06:48:10;5.20;74.44
69823;SHT31;57119;52.516;13.508;2023-04-03T06:50:36;5.46;72.87
69823;SHT31;57119;52.516;13.508;2023-04-03T06:53:02;5.42;72.65
69823;SHT31;57119;52.516;13.508;2023-04-03T06:55:28;5.94;70.54
69823;SHT31;57119;52.516;13.508;2023-04-03T06:57:54;5.74;70.77
69823;SHT31;57119;52.516;13.508;2023-04-03T07:00:19;5.90;70.10
69823;SHT31;57119;52.516;13.508;2023-04-03T07:02:45;5.98;69.61
69823;SHT31;57119;52.516;13.508;2023-04-03T07:05:10;6.48;67.19
69823;SHT31;57119;52.516;13.508;2023-04-03T07:07:36;6.76;68.01
69823;SHT31;57119;52.516;13.508;2023-04-03T07:10:03;7.13;66.28
69823;SHT31;57119;52.516;13.508;2023-04-03T07:12:29;7.11;64.98
69823;SHT31;57119;52.516;13.508;2023-04-03T07:14:54;7.59;65.04
69823;SHT31;57119;52.516;13.508;2023-04-03T07:17:20;7.76;64.43
69823;SHT31;57119;52.516;13.508;2023-04-03T07:19:45;8.13;64.03
69823;SHT31;57119;52.516;13.508;2023-04-03T07:22:10;7.87;62.68
69823;SHT31;57119;52.516;13.508;2023-04-03T07:24:36;8.38;62.71
69823;SHT31;57119;52.516;13.508;2023-04-03T07:27:02;8.51;62.24
69823;SHT31;57119;52.516;13.508;2023-04-03T07:29:28;8.38;62.21
69823;SHT31;57119;52.516;13.508;2023-04-03T07:31:53;8.61;60.62
69823;SHT31;57119;52.516;13.508;2023-04-03T07:34:20;8.85;60.13
69823;SHT31;57119;52.516;13.508;2023-04-03T07:36:46;9.54;59.48
69823;SHT31;57119;52.516;13.508;2023-04-03T07:39:11;8.58;59.47
69823;SHT31;57119;52.516;13.508;2023-04-03T07:41:37;8.64;60.09
69823;SHT31;57119;52.516;13.508;2023-04-03T07:44:02;7.66;60.08
69823;SHT31;57119;52.516;13.508;2023-04-03T07:46:29;7.41;61.99
69823;SHT31;57119;52.516;13.508;2023-04-03T07:48:55;7.43;62.62
69823;SHT31;57119;52.516;13.508;2023-04-03T07:51:20;7.20;61.87
69823;SHT31;57119;52.516;13.508;2023-04-03T07:53:46;6.65;62.33
69823;SHT31;57119;52.516;13.508;2023-04-03T07:56:11;7.66;61.42
69823;SHT31;57119;52.516;13.508;2023-04-03T07:58:36;6.62;63.18
69823;SHT31;57119;52.516;13.508;2023-04-03T08:01:02;5.98;63.97
69823;SHT31;57119;52.516;13.508;2023-04-03T08:03:28;8.47;60.33
69823;SHT31;57119;52.516;13.508;2023-04-03T08:05:54;7.86;60.70
69823;SHT31;57119;52.516;13.508;2023-04-03T08:08:22;7.34;62.73
69823;SHT31;57119;52.516;13.508;2023-04-03T08:10:52;6.61;63.56
69823;SHT31;57119;52.516;13.508;2023-04-03T08:13:18;7.58;62.28
69823;SHT31;57119;52.516;13.508;2023-04-03T08:15:44;8.50;59.16
69823;SHT31;57119;52.516;13.508;2023-04-03T08:18:09;9.34;59.11
69823;SHT31;57119;52.516;13.508;2023-04-03T08:20:35;8.16;58.78
69823;SHT31;57119;52.516;13.508;2023-04-03T08:23:01;8.12;60.54
69823;SHT31;57119;52.516;13.508;2023-04-03T08:25:27;6.92;61.65
69823;SHT31;57119;52.516;13.508;2023-04-03T08:27:54;6.69;62.58
69823;SHT31;57119;52.516;13.508;2023-04-03T08:30:19;6.55;62.45
69823;SHT31;57119;52.516;13.508;2023-04-03T08:32:45;6.37;61.93
69823;SHT31;57119;52.516;13.508;2023-04-03T08:35:11;5.90;61.56
69823;SHT31;57119;52.516;13.508;2023-04-03T08:37:37;5.39;61.53
69823;SHT31;57119;52.516;13.508;2023-04-03T08:40:05;5.18;62.34
69823;SHT31;57119;52.516;13.508;2023-04-03T08:42:52;4.98;63.13
69823;SHT31;57119;52.516;13.508;2023-04-03T08:48:15;5.79;63.28
69823;SHT31;57119;52.516;13.508;2023-04-03T08:50:43;6.18;62.00
69823;SHT31;57119;52.516;13.508;2023-04-03T08:53:20;6.00;61.32
69823;SHT31;57119;52.516;13.508;2023-04-03T08:55:50;6.03;62.60
69823;SHT31;57119;52.516;13.508;2023-04-03T08:58:21;6.11;61.80
69823;SHT31;57119;52.516;13.508;2023-04-03T09:00:50;7.34;60.19
69823;SHT31;57119;52.516;13.508;2023-04-03T09:03:19;8.13;58.27
69823;SHT31;57119;52.516;13.508;2023-04-03T09:08:32;7.47;59.75
69823;SHT31;57119;52.516;13.508;2023-04-03T09:11:08;10.39;53.77
69823;SHT31;57119;52.516;13.508;2023-04-03T09:16:49;10.92;49.52
69823;SHT31;57119;52.516;13.508;2023-04-03T09:21:59;12.53;48.55
69823;SHT31;57119;52.516;13.508;2023-04-03T09:24:26;11.60;49.62
69823;SHT31;57119;52.516;13.508;2023-04-03T09:26:56;10.60;49.75
69823;SHT31;57119;52.516;13.508;2023-04-03T09:29:25;11.90;48.26
69823;SHT31;57119;52.516;13.508;2023-04-03T09:32:00;10.49;50.60
69823;SHT31;57119;52.516;13.508;2023-04-03T09:34:35;9.40;52.47
69823;SHT31;57119;52.516;13.508;2023-04-03T09:37:03;8.21;54.35
69823;SHT31;57119;52.516;13.508;2023-04-03T09:39:50;7.73;56.00
69823;SHT31;57119;52.516;13.508;2023-04-03T09:42:21;7.65;57.94
69823;SHT31;57119;52.516;13.508;2023-04-03T09:45:02;9.68;52.86
69823;SHT31;57119;52.516;13.508;2023-04-03T09:47:32;8.31;54.13
69823;SHT31;57119;52.516;13.508;2023-04-03T09:52:38;8.38;55.67
69823;SHT31;57119;52.516;13.508;2023-04-03T09:55:19;7.92;57.13
69823;SHT31;57119;52.516;13.508;2023-04-03T09:57:52;7.93;57.56
69823;SHT31;57119;52.516;13.508;2023-04-03T10:00:34;8.92;55.53
69823;SHT31;57119;52.516;13.508;2023-04-03T10:03:00;8.86;54.97
69823;SHT31;57119;52.516;13.508;2023-04-03T10:05:39;8.99;55.57
69823;SHT31;57119;52.516;13.508;2023-04-03T10:10:38;8.07;56.35
69823;SHT31;57119;52.516;13.508;2023-04-03T10:13:09;7.97;56.63
69823;SHT31;57119;52.516;13.508;2023-04-03T10:15:43;7.61;56.55
69823;SHT31;57119;52.516;13.508;2023-04-03T10:18:21;7.56;57.50
69823;SHT31;57119;52.516;13.508;2023-04-03T10:20:52;7.62;58.19
69823;SHT31;57119;52.516;13.508;2023-04-03T10:26:07;8.44;57.51
69823;SHT31;57119;52.516;13.508;2023-04-03T10:31:46;7.97;57.42
69823;SHT31;57119;52.516;13.508;2023-04-03T10:34:51;7.35;58.71
69823;SHT31;57119;52.516;13.508;2023-04-03T10:37:25;7.32;59.68
69823;SHT31;57119;52.516;13.508;2023-04-03T10:40:01;6.68;60.33
69823;SHT31;57119;52.516;13.508;2023-04-03T10:53:55;8.60;57.37
69823;SHT31;57119;52.516;13.508;2023-04-03T10:59:21;7.47;57.58
69823;SHT31;57119;52.516;13.508;2023-04-03T11:01:51;7.03;59.22
69823;SHT31;57119;52.516;13.508;2023-04-03T11:04:19;6.53;59.69
69823;SHT31;57119;52.516;13.508;2023-04-03T11:06:50;6.56;60.29
69823;SHT31;57119;52.516;13.508;2023-04-03T11:09:25;6.59;60.77
69823;SHT31;57119;52.516;13.508;2023-04-03T11:12:00;6.85;60.98
69823;SHT31;57119;52.516;13.508;2023-04-03T11:17:08;7.31;60.06
69823;SHT31;57119;52.516;13.508;2023-04-03T11:22:34;7.99;59.29
69823;SHT31;57119;52.516;13.508;2023-04-03T11:27:42;7.93;58.45
69823;SHT31;57119;52.516;13.508;2023-04-03T11:30:16;7.94;59.58
69823;SHT31;57119;52.516;13.508;2023-04-03T11:35:18;7.59;60.23
69823;SHT31;57119;52.516;13.508;2023-04-03T11:37:53;7.72;60.39
69823;SHT31;57119;52.516;13.508;2023-04-03T11:40:28;7.86;61.11
69823;SHT31;57119;52.516;13.508;2023-04-03T11:47:56;8.03;59.77
69823;SHT31;57119;52.516;13.508;2023-04-03T11:53:33;7.82;59.07
69823;SHT31;57119;52.516;13.508;2023-04-03T11:56:32;7.20;60.35
69823;SHT31;57119;52.516;13.508;2023-04-03T12:01:52;6.75;61.11
69823;SHT31;57119;52.516;13.508;2023-04-03T12:04:22;6.69;61.59
69823;SHT31;57119;52.516;13.508;2023-04-03T12:11:56;6.83;60.56
69823;SHT31;57119;52.516;13.508;2023-04-03T12:14:23;7.55;59.45
69823;SHT31;57119;52.516;13.508;2023-04-03T12:16:52;8.20;58.72
69823;SHT31;57119;52.516;13.508;2023-04-03T12:19:34;8.48;56.32
69823;SHT31;57119;52.516;13.508;2023-04-03T12:24:29;9.88;54.96
69823;SHT31;57119;52.516;13.508;2023-04-03T12:27:11;10.13;54.17
69823;SHT31;57119;52.516;13.508;2023-04-03T12:29:47;11.95;50.87
69823;SHT31;57119;52.516;13.508;2023-04-03T12:40:25;9.48;53.04
69823;SHT31;57119;52.516;13.508;2023-04-03T12:45:44;7.99;56.69
69823;SHT31;57119;52.516;13.508;2023-04-03T12:48:15;7.18;58.09
69823;SHT31;57119;52.516;13.508;2023-04-03T12:50:41;7.43;58.54
69823;SHT31;57119;52.516;13.508;2023-04-03T12:53:19;7.72;58.82
69823;SHT31;57119;52.516;13.508;2023-04-03T12:55:46;7.93;57.16
69823;SHT31;57119;52.516;13.508;2023-04-03T12:58:21;7.85;56.36
69823;SHT31;57119;52.516;13.508;2023-04-03T13:00:46;8.03;57.23
69823;SHT31;57119;52.516;13.508;2023-04-03T13:03:25;8.30;57.90
69823;SHT31;57119;52.516;13.508;2023-04-03T13:05:54;8.16;56.71
69823;SHT31;57119;52.516;13.508;2023-04-03T13:08:20;8.03;57.76
69823;SHT31;57119;52.516;13.508;2023-04-03T13:10:56;8.04;57.67
69823;SHT31;57119;52.516;13.508;2023-04-03T13:13:23;7.85;59.08
69823;SHT31;57119;52.516;13.508;2023-04-03T13:15:49;8.06;58.72
69823;SHT31;57119;52.516;13.508;2023-04-03T13:20:48;8.10;58.47
69823;SHT31;57119;52.516;13.508;2023-04-03T13:23:17;7.75;59.33
69823;SHT31;57119;52.516;13.508;2023-04-03T13:25:44;7.23;60.94
69823;SHT31;57119;52.516;13.508;2023-04-03T13:28:13;6.79;61.25
69823;SHT31;57119;52.516;13.508;2023-04-03T13:30:53;6.66;61.40
69823;SHT31;57119;52.516;13.508;2023-04-03T13:33:24;6.44;61.81
69823;SHT31;57119;52.516;13.508;2023-04-03T13:38:39;6.17;62.01
69823;SHT31;57119;52.516;13.508;2023-04-03T13:41:23;6.03;63.49
69823;SHT31;57119;52.516;13.508;2023-04-03T13:43:49;5.90;63.41
69823;SHT31;57119;52.516;13.508;2023-04-03T13:48:45;6.13;64.19
69823;SHT31;57119;52.516;13.508;2023-04-03T13:53:58;6.55;64.68
69823;SHT31;57119;52.516;13.508;2023-04-03T13:56:29;6.64;63.33
69823;SHT31;57119;52.516;13.508;2023-04-03T14:04:27;10.20;58.04
69823;SHT31;57119;52.516;13.508;2023-04-03T14:06:53;10.53;55.12
69823;SHT31;57119;52.516;13.508;2023-04-03T14:09:21;9.95;56.10
69823;SHT31;57119;52.516;13.508;2023-04-03T14:11:48;10.12;56.35
69823;SHT31;57119;52.516;13.508;2023-04-03T14:14:19;9.71;56.58
69823;SHT31;57119;52.516;13.508;2023-04-03T14:16:50;9.57;57.30
69823;SHT31;57119;52.516;13.508;2023-04-03T14:19:27;9.15;57.88
69823;SHT31;57119;52.516;13.508;2023-04-03T14:21:54;12.35;53.69
69823;SHT31;57119;52.516;13.508;2023-04-03T14:24:20;13.78;49.68
69823;SHT31;57119;52.516;13.508;2023-04-03T14:26:46;13.41;49.39
69823;SHT31;57119;52.516;13.508;2023-04-03T14:29:12;12.04;50.72
69823;SHT31;57119;52.516;13.508;2023-04-03T14:31:39;11.23;54.17
69823;SHT31;57119;52.516;13.508;2023-04-03T14:34:05;9.79;55.47
69823;SHT31;57119;52.516;13.508;2023-04-03T14:36:31;8.98;58.42
69823;SHT31;57119;52.516;13.508;2023-04-03T14:38:58;8.36;59.39
69823;SHT31;57119;52.516;13.508;2023-04-03T14:41:25;7.83;61.20
69823;SHT31;57119;52.516;13.508;2023-04-03T14:43:52;7.50;62.04
69823;SHT31;57119;52.516;13.508;2023-04-03T14:46:29;7.04;62.85
69823;SHT31;57119;52.516;13.508;2023-04-03T14:48:55;6.89;63.83
69823;SHT31;57119;52.516;13.508;2023-04-03T14:51:20;6.56;64.15
69823;SHT31;57119;52.516;13.508;2023-04-03T14:53:46;6.22;65.29
69823;SHT31;57119;52.516;13.508;2023-04-03T14:56:25;5.90;66.15
69823;SHT31;57119;52.516;13.508;2023-04-03T14:58:55;5.85;67.23
69823;SHT31;57119;52.516;13.508;2023-04-03T15:01:21;5.63;67.99
69823;SHT31;57119;52.516;13.508;2023-04-03T15:03:46;5.63;68.52
69823;SHT31;57119;52.516;13.508;2023-04-03T15:06:12;5.43;68.85
69823;SHT31;57119;52.516;13.508;2023-04-03T15:08:38;5.28;69.25
69823;SHT31;57119;52.516;13.508;2023-04-03T15:11:06;5.29;69.52
69823;SHT31;57119;52.516;13.508;2023-04-03T15:13:32;5.10;69.64
69823;SHT31;57119;52.516;13.508;2023-04-03T15:15:57;5.08;69.74
69823;SHT31;57119;52.516;13.508;2023-04-03T15:18:25;5.10;70.21
69823;SHT31;57119;52.516;13.508;2023-04-03T15:20:52;5.15;70.54
69823;SHT31;57119;52.516;13.508;2023-04-03T15:23:18;5.08;70.60
69823;SHT31;57119;52.516;13.508;2023-04-03T15:25:45;5.14;70.79
69823;SHT31;57119;52.516;13.508;2023-04-03T15:30:50;4.98;70.52
69823;SHT31;57119;52.516;13.508;2023-04-03T15:33:16;5.02;70.52
69823;SHT31;57119;52.516;13.508;2023-04-03T15:35:41;5.08;69.62
69823;SHT31;57119;52.516;13.508;2023-04-03T15:38:07;5.21;69.12
69823;SHT31;57119;52.516;13.508;2023-04-03T15:40:33;5.08;69.18
69823;SHT31;57119;52.516;13.508;2023-04-03T15:42:58;5.08;69.85
69823;SHT31;57119;52.516;13.508;2023-04-03T15:45:24;5.04;69.81
69823;SHT31;57119;52.516;13.508;2023-04-03T15:47:50;4.98;70.24
69823;SHT31;57119;52.516;13.508;2023-04-03T15:50:15;4.81;70.92
69823;SHT31;57119;52.516;13.508;2023-04-03T15:52:41;4.73;71.27
69823;SHT31;57119;52.516;13.508;2023-04-03T15:55:06;4.45;71.51
69823;SHT31;57119;52.516;13.508;2023-04-03T15:57:32;4.56;71.39
69823;SHT31;57119;52.516;13.508;2023-04-03T15:59:57;7.43;66.02
69823;SHT31;57119;52.516;13.508;2023-04-03T16:02:23;9.57;60.40
69823;SHT31;57119;52.516;13.508;2023-04-03T16:04:49;10.23;57.41
69823;SHT31;57119;52.516;13.508;2023-04-03T16:07:14;11.29;55.42
69823;SHT31;57119;52.516;13.508;2023-04-03T16:09:40;11.39;54.53
69823;SHT31;57119;52.516;13.508;2023-04-03T16:12:05;12.45;53.45
69823;SHT31;57119;52.516;13.508;2023-04-03T16:14:31;11.56;53.54
69823;SHT31;57119;52.516;13.508;2023-04-03T16:16:57;10.84;54.77
69823;SHT31;57119;52.516;13.508;2023-04-03T16:19:23;10.70;55.63
69823;SHT31;57119;52.516;13.508;2023-04-03T16:21:48;9.38;58.41
69823;SHT31;57119;52.516;13.508;2023-04-03T16:24:14;8.60;61.05
69823;SHT31;57119;52.516;13.508;2023-04-03T16:26:40;7.50;62.63
69823;SHT31;57119;52.516;13.508;2023-04-03T16:29:05;6.87;63.57
69823;SHT31;57119;52.516;13.508;2023-04-03T16:31:32;6.42;65.35
69823;SHT31;57119;52.516;13.508;2023-04-03T16:33:58;5.93;66.00
69823;SHT31;57119;52.516;13.508;2023-04-03T16:36:24;5.76;67.85
69823;SHT31;57119;52.516;13.508;2023-04-03T16:38:50;5.53;68.83
69823;SHT31;57119;52.516;13.508;2023-04-03T16:41:16;5.48;69.72
69823;SHT31;57119;52.516;13.508;2023-04-03T16:43:41;5.14;70.33
69823;SHT31;57119;52.516;13.508;2023-04-03T16:46:06;5.07;71.01
69823;SHT31;57119;52.516;13.508;2023-04-03T16:48:32;4.95;71.24
69823;SHT31;57119;52.516;13.508;2023-04-03T16:50:57;4.81;71.72
69823;SHT31;57119;52.516;13.508;2023-04-03T16:53:24;4.64;71.74
69823;SHT31;57119;52.516;13.508;2023-04-03T16:55:49;4.72;72.42
69823;SHT31;57119;52.516;13.508;2023-04-03T16:58:15;4.70;72.06
69823;SHT31;57119;52.516;13.508;2023-04-03T17:00:41;4.62;71.94
69823;SHT31;57119;52.516;13.508;2023-04-03T17:03:07;4.56;72.23
69823;SHT31;57119;52.516;13.508;2023-04-03T17:05:32;4.52;72.62
69823;SHT31;57119;52.516;13.508;2023-04-03T17:07:58;4.46;72.85